Time;durP1;ratioP1;P1;durP2;ratioP2;P2;SDS_P1;SDS_P2;PMS_P1;PMS_P2;Temp;Humidity;BMP_temperature;BMP_pressure;BME280_temperature;BME280_humidity;BME280_pressure;Samples;Min_cycle;Max_cycle;Signal;HPM_P1;HPM_P2
2023/08/08 00:01:51;;;;;;;2.90;0.87;;;14.40;99.90;;;;;;5094987;28;20286;-45
2023/08/08 00:04:17;;;;;;;2.37;0.90;;;14.40;99.90;;;;;;5094684;28;20051;-47
2023/08/08 00:06:42;;;;;;;2.60;0.80;;;14.40;99.90;;;;;;5094898;28;20048;-46
2023/08/08 00:09:09;;;;;;;3.10;0.90;;;14.40;99.90;;;;;;5094449;28;20047;-47
2023/08/08 00:11:34;;;;;;;;;;;14.40;99.90;;;;;;5094651;28;20285;-46
2023/08/08 00:14:00;;;;;;;2.97;0.90;;;14.40;99.90;;;;;;5094892;28;19920;-46
2023/08/08 00:16:26;;;;;;;3.13;0.80;;;14.40;99.90;;;;;;5094327;28;20487;-46
2023/08/08 00:18:53;;;;;;;4.40;1.30;;;14.30;99.90;;;;;;5093370;28;20407;-46
2023/08/08 00:21:20;;;;;;;3.22;0.90;;;14.30;99.90;;;;;;5094137;28;20773;-46
2023/08/08 00:23:45;;;;;;;2.53;0.70;;;14.30;99.90;;;;;;5094251;28;20483;-47
2023/08/08 00:26:11;;;;;;;1.85;0.77;;;14.30;99.90;;;;;;5094263;28;20063;-46
2023/08/08 00:28:37;;;;;;;2.20;0.93;;;14.30;99.90;;;;;;5094284;28;20131;-46
2023/08/08 00:31:03;;;;;;;2.75;1.10;;;14.30;99.90;;;;;;5094184;28;20044;-47
2023/08/08 00:33:29;;;;;;;2.95;0.82;;;14.30;99.90;;;;;;5094226;28;20135;-46
2023/08/08 00:35:54;;;;;;;2.57;0.90;;;14.30;99.90;;;;;;5094363;28;20090;-47
2023/08/08 00:38:20;;;;;;;3.50;1.43;;;14.30;99.90;;;;;;5094182;28;20286;-47
2023/08/08 00:40:46;;;;;;;1.97;0.90;;;14.30;99.90;;;;;;5094042;28;20449;-46
2023/08/08 00:43:12;;;;;;;2.25;0.80;;;14.30;99.90;;;;;;5093289;28;20826;-46
2023/08/08 00:45:39;;;;;;;2.58;0.90;;;14.30;99.90;;;;;;5094096;28;20533;-47
2023/08/08 00:48:05;;;;;;;5.10;1.10;;;14.30;99.90;;;;;;5093960;28;20044;-47
2023/08/08 00:50:31;;;;;;;3.15;1.23;;;14.30;99.90;;;;;;5093993;28;20054;-46
2023/08/08 00:52:57;;;;;;;3.00;1.10;;;14.30;99.90;;;;;;5093802;28;20495;-47
2023/08/08 00:55:23;;;;;;;3.17;0.80;;;14.30;99.90;;;;;;5093827;28;20048;-46
2023/08/08 00:57:49;;;;;;;2.55;0.88;;;14.30;99.90;;;;;;5094202;28;20399;-47
2023/08/08 01:00:15;;;;;;;1.83;0.65;;;14.30;99.90;;;;;;5093867;28;20506;-46
2023/08/08 01:02:40;;;;;;;2.67;0.90;;;14.20;99.90;;;;;;5093805;28;20047;-47
2023/08/08 01:05:07;;;;;;;2.60;0.90;;;14.20;99.90;;;;;;5092559;28;20096;-46
2023/08/08 01:07:41;;;;;;;1.63;0.80;;;14.20;99.90;;;;;;5093580;28;20476;-47
2023/08/08 01:10:16;;;;;;;4.75;0.90;;;14.30;99.90;;;;;;5093651;28;20048;-47
2023/08/08 01:12:47;;;;;;;4.63;1.30;;;14.20;99.90;;;;;;5098101;28;20044;-48
2023/08/08 01:15:14;;;;;;;3.03;0.95;;;14.20;99.90;;;;;;5098142;28;20090;-47
2023/08/08 01:17:42;;;;;;;2.13;0.75;;;14.20;99.90;;;;;;5097867;28;20044;-46
2023/08/08 01:20:10;;;;;;;2.42;0.77;;;14.20;99.90;;;;;;5097788;28;20147;-46
2023/08/08 01:23:13;;;;;;;3.15;0.90;;;14.30;99.90;;;;;;5097272;28;20114;-46
2023/08/08 01:25:40;;;;;;;5.45;1.10;;;14.20;99.90;;;;;;5095572;28;20066;-46
2023/08/08 01:28:07;;;;;;;1.60;0.70;;;14.20;99.90;;;;;;5097877;28;20464;-46
2023/08/08 01:30:33;;;;;;;3.40;0.90;;;14.20;99.90;;;;;;5096646;28;20047;-46
2023/08/08 01:32:59;;;;;;;1.88;0.80;;;14.20;99.90;;;;;;5097566;28;20113;-46
2023/08/08 01:35:36;;;;;;;3.13;0.90;;;14.20;99.90;;;;;;5097380;28;20051;-46
2023/08/08 01:38:08;;;;;;;;;;;14.20;99.90;;;;;;5098053;28;20339;-46
2023/08/08 01:40:36;;;;;;;4.15;1.10;;;14.20;99.90;;;;;;5097719;28;19947;-47
2023/08/08 01:43:03;;;;;;;2.83;0.88;;;14.20;99.90;;;;;;5097315;28;20056;-46
2023/08/08 01:45:29;;;;;;;2.38;0.70;;;14.20;99.90;;;;;;5097197;28;20039;-46
2023/08/08 01:47:55;;;;;;;2.17;0.90;;;14.30;99.90;;;;;;5096202;28;20047;-46
2023/08/08 01:50:21;;;;;;;2.58;0.93;;;14.20;99.90;;;;;;5097373;28;20088;-46
2023/08/08 01:52:47;;;;;;;2.42;0.88;;;14.20;99.90;;;;;;5097142;28;20479;-47
2023/08/08 01:55:13;;;;;;;1.83;0.75;;;14.20;99.90;;;;;;5097289;28;20044;-45
2023/08/08 01:57:39;;;;;;;3.88;0.70;;;14.20;99.90;;;;;;5097142;28;20471;-46
2023/08/08 02:00:06;;;;;;;2.80;0.90;;;14.30;99.90;;;;;;5095764;28;20055;-46
2023/08/08 02:02:32;;;;;;;2.42;0.90;;;14.30;99.90;;;;;;5097104;28;20544;-47
2023/08/08 02:04:58;;;;;;;3.33;0.70;;;14.30;99.90;;;;;;5096133;28;20079;-46
2023/08/08 02:07:24;;;;;;;2.35;0.75;;;14.30;99.90;;;;;;5097252;28;20119;-46
2023/08/08 02:09:50;;;;;;;2.58;0.68;;;14.30;99.90;;;;;;5096842;28;20039;-47
2023/08/08 02:12:16;;;;;;;;;;;14.30;99.90;;;;;;5079639;28;20067;-46
2023/08/08 02:14:42;;;;;;;1.73;0.65;;;14.40;99.90;;;;;;5096606;28;19919;-47
2023/08/08 02:17:07;;;;;;;2.80;0.80;;;14.40;99.90;;;;;;5096781;28;20182;-46
2023/08/08 02:19:33;;;;;;;2.28;0.90;;;14.40;99.90;;;;;;5096808;28;20039;-46
2023/08/08 02:21:59;;;;;;;2.43;0.73;;;14.40;99.90;;;;;;5095991;28;20055;-46
2023/08/08 02:24:24;;;;;;;2.90;0.77;;;14.40;99.90;;;;;;5096460;28;20055;-47
2023/08/08 02:26:50;;;;;;;2.53;0.80;;;14.40;99.90;;;;;;5096570;28;20048;-47
2023/08/08 02:29:15;;;;;;;2.83;0.90;;;14.40;99.90;;;;;;5096485;28;20290;-46
2023/08/08 02:31:41;;;;;;;2.00;1.50;;;14.40;99.90;;;;;;5095426;28;20510;-46
2023/08/08 02:34:07;;;;;;;3.07;0.93;;;14.40;99.90;;;;;;5096977;28;20127;-45
2023/08/08 02:36:33;;;;;;;2.27;0.80;;;14.50;99.90;;;;;;5096593;28;20781;-47
2023/08/08 02:38:59;;;;;;;3.35;0.90;;;14.50;99.90;;;;;;5096430;28;20080;-47
2023/08/08 02:41:24;;;;;;;3.65;0.88;;;14.50;99.90;;;;;;5096356;28;20547;-47
2023/08/08 02:43:50;;;;;;;2.60;1.00;;;14.50;99.90;;;;;;5095239;28;20040;-46
2023/08/08 02:46:16;;;;;;;1.43;0.70;;;14.50;99.90;;;;;;5096265;28;20278;-47
2023/08/08 02:48:41;;;;;;;2.70;0.87;;;14.50;99.90;;;;;;5096129;28;20040;-46
2023/08/08 02:51:07;;;;;;;3.40;0.97;;;14.50;99.90;;;;;;5096181;28;20039;-46
2023/08/08 02:53:33;;;;;;;2.53;0.90;;;14.40;99.90;;;;;;5095188;28;20381;-46
2023/08/08 02:55:58;;;;;;;4.22;1.08;;;14.40;99.90;;;;;;5095951;28;20399;-46
2023/08/08 02:58:24;;;;;;;2.00;0.80;;;14.40;99.90;;;;;;5095850;28;20391;-47
2023/08/08 03:00:50;;;;;;;3.50;0.80;;;14.40;99.90;;;;;;5095959;28;20282;-46
2023/08/08 03:03:15;;;;;;;3.20;0.77;;;14.40;99.90;;;;;;5096080;28;20040;-46
2023/08/08 03:05:41;;;;;;;2.67;0.93;;;14.40;99.90;;;;;;5094689;28;20047;-46
2023/08/08 03:08:07;;;;;;;2.87;1.00;;;14.40;99.90;;;;;;5094830;28;20051;-46
2023/08/08 03:10:32;;;;;;;2.20;0.70;;;14.40;99.90;;;;;;5095668;28;20285;-46
2023/08/08 03:12:58;;;;;;;3.40;0.73;;;14.40;99.90;;;;;;5095621;28;20134;-46
2023/08/08 03:15:23;;;;;;;1.80;0.70;;;14.30;99.90;;;;;;5095719;28;20048;-45
2023/08/08 03:17:49;;;;;;;1.80;0.80;;;14.30;99.90;;;;;;5095657;28;20043;-46
2023/08/08 03:20:15;;;;;;;2.25;0.75;;;14.30;99.90;;;;;;5095435;28;20048;-46
2023/08/08 03:22:41;;;;;;;2.90;0.70;;;14.30;99.90;;;;;;5095553;28;20122;-45
2023/08/08 03:25:07;;;;;;;2.93;0.97;;;14.30;99.90;;;;;;5095373;28;20055;-46
2023/08/08 03:27:33;;;;;;;2.13;0.60;;;14.20;99.90;;;;;;5095037;28;20048;-46
2023/08/08 03:29:58;;;;;;;1.87;0.63;;;14.20;99.90;;;;;;5094272;28;20127;-46
2023/08/08 03:32:24;;;;;;;1.93;0.70;;;14.20;99.90;;;;;;5095793;28;20313;-45
2023/08/08 03:34:50;;;;;;;3.03;0.90;;;14.20;99.90;;;;;;5094231;28;20495;-46
2023/08/08 03:37:15;;;;;;;2.67;0.90;;;14.20;99.90;;;;;;5095225;28;20298;-46
2023/08/08 03:39:41;;;;;;;2.83;1.23;;;14.20;99.90;;;;;;5094099;28;20044;-47
2023/08/08 03:42:07;;;;;;;2.33;0.97;;;14.20;99.90;;;;;;5093986;28;20127;-47
2023/08/08 03:44:33;;;;;;;2.33;0.77;;;14.20;99.90;;;;;;5128947;27;20100;-46
2023/08/08 03:46:58;;;;;;;3.00;1.00;;;14.20;99.90;;;;;;5095042;28;20492;-47
2023/08/08 03:49:24;;;;;;;3.33;0.83;;;14.20;99.90;;;;;;5095310;28;20305;-46
2023/08/08 03:51:50;;;;;;;2.28;0.57;;;14.10;99.90;;;;;;5095177;28;20399;-45
2023/08/08 03:54:17;;;;;;;3.17;0.80;;;14.10;99.90;;;;;;5094902;28;20054;-46
2023/08/08 03:56:43;;;;;;;4.85;0.70;;;14.10;99.90;;;;;;5093620;28;20302;-46
2023/08/08 03:59:09;;;;;;;2.67;0.67;;;14.10;99.90;;;;;;5095505;28;20051;-46
2023/08/08 04:01:37;;;;;;;2.55;0.60;;;14.10;99.90;;;;;;5094846;28;20331;-46
2023/08/08 04:04:04;;;;;;;2.00;0.63;;;14.10;99.90;;;;;;5094688;28;20135;-46
2023/08/08 04:06:30;;;;;;;3.95;0.63;;;14.10;99.90;;;;;;5094716;28;20040;-47
2023/08/08 04:08:55;;;;;;;2.95;0.85;;;14.10;99.90;;;;;;5093741;28;20047;-46
2023/08/08 04:11:21;;;;;;;2.47;0.70;;;14.00;99.90;;;;;;5094575;28;20044;-47
2023/08/08 04:13:46;;;;;;;1.90;0.50;;;14.00;99.90;;;;;;5094311;28;20051;-46
2023/08/08 04:16:12;;;;;;;1.70;0.47;;;14.00;99.90;;;;;;5094672;28;20040;-46
2023/08/08 04:18:38;;;;;;;3.20;0.60;;;14.00;99.90;;;;;;5093310;28;20487;-46
2023/08/08 04:21:04;;;;;;;2.80;0.90;;;14.00;99.90;;;;;;5093326;28;20036;-47
2023/08/08 04:23:29;;;;;;;2.90;0.77;;;14.00;99.90;;;;;;5094350;28;20357;-47
2023/08/08 04:25:55;;;;;;;3.27;0.50;;;13.90;99.90;;;;;;5094054;28;20088;-47
2023/08/08 04:28:21;;;;;;;1.67;0.60;;;13.90;99.90;;;;;;5094068;28;20059;-47
2023/08/08 04:30:47;;;;;;;1.55;0.57;;;14.00;99.90;;;;;;5094351;28;20052;-45
2023/08/08 04:33:12;;;;;;;2.03;0.80;;;13.90;99.90;;;;;;5094192;28;20123;-45
2023/08/08 04:35:38;;;;;;;2.40;0.53;;;13.90;99.90;;;;;;5092879;28;20328;-46
2023/08/08 04:38:04;;;;;;;2.23;0.70;;;13.90;99.90;;;;;;5094005;28;20184;-46
2023/08/08 04:40:29;;;;;;;2.70;0.43;;;14.00;99.90;;;;;;5094144;28;20148;-46
2023/08/08 04:42:56;;;;;;;3.33;0.50;;;13.90;99.90;;;;;;5093866;28;20044;-46
2023/08/08 04:45:21;;;;;;;1.45;0.50;;;14.00;99.90;;;;;;5092944;28;20399;-45
2023/08/08 04:47:48;;;;;;;1.43;0.50;;;14.00;99.90;;;;;;5094027;28;20044;-45
2023/08/08 04:50:13;;;;;;;2.63;0.85;;;14.00;99.90;;;;;;5094104;28;20282;-45
2023/08/08 04:52:39;;;;;;;1.00;0.40;;;14.00;99.90;;;;;;5093929;28;20116;-46
2023/08/08 04:55:05;;;;;;;1.50;0.63;;;14.00;99.90;;;;;;5093712;28;20286;-45
2023/08/08 04:57:31;;;;;;;1.00;0.40;;;14.00;99.90;;;;;;5093506;28;20880;-47
2023/08/08 04:59:57;;;;;;;1.30;0.40;;;14.10;99.90;;;;;;5093857;28;20131;-46
2023/08/08 05:02:23;;;;;;;1.20;0.43;;;14.10;99.90;;;;;;5093816;28;20282;-46
2023/08/08 05:04:49;;;;;;;2.83;0.52;;;14.10;99.90;;;;;;5093860;28;20536;-47
2023/08/08 05:07:15;;;;;;;2.83;0.63;;;14.10;99.90;;;;;;5093904;28;20044;-46
2023/08/08 05:09:41;;;;;;;2.20;0.50;;;14.10;99.90;;;;;;5093615;28;20048;-46
2023/08/08 05:12:07;;;;;;;1.07;0.50;;;14.20;99.90;;;;;;5094080;28;20290;-47
2023/08/08 05:14:32;;;;;;;3.15;0.50;;;14.20;99.90;;;;;;5093743;28;20044;-45
2023/08/08 05:16:58;;;;;;;1.93;0.60;;;14.20;99.90;;;;;;5092606;28;20073;-46
2023/08/08 05:19:25;;;;;;;3.50;0.60;;;14.20;99.90;;;;;;5092620;28;20048;-46
2023/08/08 05:21:50;;;;;;;;;;;14.30;99.90;;;;;;5094115;28;20070;-46
2023/08/08 05:24:16;;;;;;;1.10;0.43;;;14.30;99.90;;;;;;5093590;28;19924;-46
2023/08/08 05:26:41;;;;;;;2.93;0.50;;;14.30;99.90;;;;;;5093901;28;20449;-46
2023/08/08 05:29:07;;;;;;;1.67;0.40;;;14.40;99.90;;;;;;5093644;28;20044;-46
2023/08/08 05:31:33;;;;;;;1.13;0.50;;;14.40;99.90;;;;;;5093520;28;20390;-46
2023/08/08 05:33:58;;;;;;;2.50;0.60;;;14.40;99.90;;;;;;5093654;28;20467;-47
2023/08/08 05:36:24;;;;;;;4.05;0.52;;;14.40;99.90;;;;;;5092319;28;20109;-46
2023/08/08 05:38:50;;;;;;;1.67;0.40;;;14.50;99.90;;;;;;5093290;28;20445;-46
2023/08/08 05:41:15;;;;;;;2.70;0.43;;;14.50;99.90;;;;;;5093164;28;20285;-46
2023/08/08 05:43:42;;;;;;;1.53;0.47;;;14.60;99.90;;;;;;5093541;28;20098;-45
2023/08/08 05:46:08;;;;;;;;;;;14.60;99.90;;;;;;5093828;28;20044;-46
2023/08/08 05:48:33;;;;;;;3.03;0.52;;;14.60;99.90;;;;;;5093538;28;19934;-45
2023/08/08 05:50:59;;;;;;;1.17;0.40;;;14.60;99.90;;;;;;5093170;28;20495;-47
2023/08/08 05:53:25;;;;;;;2.60;0.50;;;14.60;99.90;;;;;;5092409;28;20312;-46
2023/08/08 05:55:51;;;;;;;2.17;0.63;;;14.70;99.90;;;;;;5093305;28;20055;-45
2023/08/08 05:58:16;;;;;;;2.65;0.40;;;14.90;99.90;;;;;;5095228;28;20105;-46
2023/08/08 06:00:42;;;;;;;1.93;0.57;;;15.00;99.90;;;;;;5095703;28;20487;-46
2023/08/08 06:03:08;;;;;;;2.22;0.57;;;14.90;99.90;;;;;;5097127;28;20278;-47
2023/08/08 06:05:34;;;;;;;2.88;0.57;;;15.10;99.90;;;;;;5096918;28;20044;-46
2023/08/08 06:08:00;;;;;;;2.10;0.50;;;15.20;99.90;;;;;;5096887;28;20040;-46
2023/08/08 06:10:26;;;;;;;2.58;0.50;;;15.20;99.90;;;;;;5096775;28;20282;-46
2023/08/08 06:12:51;;;;;;;1.75;0.57;;;15.10;99.90;;;;;;5096990;28;20105;-49
2023/08/08 06:15:17;;;;;;;1.75;0.40;;;15.10;99.90;;;;;;5096870;28;20048;-46
2023/08/08 06:17:43;;;;;;;3.22;0.40;;;15.70;99.90;;;;;;5096980;28;20130;-45
2023/08/08 06:20:09;;;;;;;2.17;0.40;;;16.80;99.90;;;;;;5096671;28;20070;-46
2023/08/08 06:22:36;;;;;;;1.58;0.40;;;17.80;99.90;;;;;;5095584;28;20285;-46
2023/08/08 06:25:03;;;;;;;0.77;0.30;;;18.80;99.90;;;;;;5096524;28;20407;-47
2023/08/08 06:27:28;;;;;;;4.20;0.50;;;19.60;99.90;;;;;;5096949;28;20056;-47
2023/08/08 06:29:55;;;;;;;2.55;0.60;;;20.20;99.90;;;;;;5096306;28;20071;-47
2023/08/08 06:32:21;;;;;;;2.88;0.40;;;20.60;99.90;;;;;;5096579;28;20040;-46
2023/08/08 06:34:47;;;;;;;1.95;0.50;;;21.00;99.90;;;;;;5095538;28;20047;-46
2023/08/08 06:37:13;;;;;;;1.30;0.20;;;21.50;99.90;;;;;;5096268;28;20160;-46
2023/08/08 06:39:39;;;;;;;3.17;0.55;;;21.80;99.90;;;;;;5096130;28;20046;-47
2023/08/08 06:42:06;;;;;;;2.28;0.68;;;21.80;99.90;;;;;;5096462;28;20083;-46
2023/08/08 06:44:44;;;;;;;1.63;0.50;;;21.40;99.90;;;;;;5096263;28;20055;-46
2023/08/08 06:47:10;;;;;;;1.95;0.50;;;20.80;99.90;;;;;;5096297;28;20040;-46
2023/08/08 06:49:36;;;;;;;;;;;20.30;99.90;;;;;;5096629;28;20498;-50
2023/08/08 06:52:02;;;;;;;2.17;0.38;;;19.80;99.90;;;;;;5096060;28;19927;-47
2023/08/08 06:54:28;;;;;;;2.55;0.30;;;19.40;99.90;;;;;;5129423;27;20063;-45
2023/08/08 06:56:56;;;;;;;2.78;0.38;;;19.10;99.90;;;;;;5095055;28;20048;-46
2023/08/08 06:59:22;;;;;;;3.05;0.40;;;18.90;99.90;;;;;;5095979;28;20056;-46
2023/08/08 07:01:49;;;;;;;1.75;0.30;;;18.60;99.90;;;;;;5096075;28;20052;-46
2023/08/08 07:04:15;;;;;;;1.52;0.43;;;18.50;99.90;;;;;;5095992;28;20075;-47
2023/08/08 07:06:42;;;;;;;1.30;0.20;;;18.40;99.90;;;;;;5095818;28;20453;-46
2023/08/08 07:09:10;;;;;;;2.60;0.60;;;18.40;99.90;;;;;;5094501;28;20052;-46
2023/08/08 07:11:37;;;;;;;1.02;0.40;;;18.70;99.90;;;;;;5094662;28;20087;-46
2023/08/08 07:14:02;;;;;;;1.02;0.38;;;18.90;99.90;;;;;;5095040;28;20056;-46
2023/08/08 07:16:28;;;;;;;3.40;0.38;;;18.60;99.90;;;;;;5094613;28;20105;-46
2023/08/08 07:18:54;;;;;;;2.63;0.50;;;18.30;99.90;;;;;;5094414;28;20391;-47
2023/08/08 07:21:20;;;;;;;3.15;0.32;;;18.00;99.90;;;;;;5095389;28;20059;-45
2023/08/08 07:23:46;;;;;;;1.13;0.30;;;17.80;99.90;;;;;;5095606;28;20048;-45
2023/08/08 07:26:11;;;;;;;1.75;0.30;;;17.60;99.90;;;;;;5095124;28;20418;-48
2023/08/08 07:28:37;;;;;;;3.20;0.50;;;17.50;99.90;;;;;;5095936;28;20127;-47
2023/08/08 07:31:03;;;;;;;1.58;0.20;;;17.30;99.90;;;;;;5095419;28;20483;-46
2023/08/08 07:33:29;;;;;;;1.60;0.40;;;17.30;99.90;;;;;;5095212;28;20449;-49
2023/08/08 07:35:55;;;;;;;3.13;0.45;;;17.20;99.90;;;;;;5094954;28;20040;-47
2023/08/08 07:38:20;;;;;;;1.52;0.30;;;17.10;99.90;;;;;;5095068;28;20391;-47
2023/08/08 07:40:47;;;;;;;2.63;0.30;;;17.10;99.90;;;;;;5095191;28;20055;-46
2023/08/08 07:43:13;;;;;;;3.65;0.40;;;17.10;99.90;;;;;;5094193;28;20052;-46
2023/08/08 07:45:39;;;;;;;2.42;0.30;;;17.00;99.90;;;;;;5094214;28;20052;-49
2023/08/08 07:48:05;;;;;;;1.30;0.28;;;17.00;99.90;;;;;;5095097;28;20043;-49
2023/08/08 07:50:31;;;;;;;5.25;0.40;;;17.00;99.90;;;;;;5127687;27;20403;-45
2023/08/08 07:52:57;;;;;;;0.85;0.30;;;17.00;99.90;;;;;;5094983;28;20054;-47
2023/08/08 07:55:23;;;;;;;1.33;0.30;;;17.00;99.90;;;;;;5094923;28;20044;-47
2023/08/08 07:57:48;;;;;;;0.98;0.25;;;17.00;99.90;;;;;;5094976;28;20044;-45
2023/08/08 08:00:18;;;;;;;2.30;0.35;;;17.00;99.90;;;;;;5094856;28;20051;-46
2023/08/08 08:02:45;;;;;;;3.63;0.40;;;17.00;99.90;;;;;;5094765;28;20090;-46
2023/08/08 08:05:11;;;;;;;0.70;0.25;;;17.00;99.90;;;;;;5094715;28;20449;-46
2023/08/08 08:07:38;;;;;;;1.02;0.35;;;16.90;99.90;;;;;;5093798;28;20507;-46
2023/08/08 08:10:05;;;;;;;1.20;0.40;;;16.90;99.90;;;;;;5094688;28;20043;-47
2023/08/08 08:12:31;;;;;;;1.77;0.22;;;16.80;99.90;;;;;;5094544;28;20056;-46
2023/08/08 08:14:57;;;;;;;2.47;0.50;;;16.80;99.90;;;;;;5094433;28;20052;-46
2023/08/08 08:17:23;;;;;;;3.13;0.40;;;16.80;99.90;;;;;;5093349;28;20149;-47
2023/08/08 08:19:50;;;;;;;1.63;0.35;;;16.80;99.90;;;;;;5094097;28;20090;-48
2023/08/08 08:22:16;;;;;;;2.13;0.60;;;16.80;99.90;;;;;;5094239;28;20395;-45
2023/08/08 08:24:41;;;;;;;3.65;0.40;;;16.70;99.90;;;;;;5094755;28;20044;-47
2023/08/08 08:27:07;;;;;;;2.30;0.30;;;16.70;99.90;;;;;;5094313;28;20109;-45
2023/08/08 08:29:33;;;;;;;0.70;0.40;;;16.70;99.90;;;;;;5094251;28;20359;-48
2023/08/08 08:31:59;;;;;;;2.25;0.32;;;16.70;99.90;;;;;;5094052;28;20135;-45
2023/08/08 08:34:24;;;;;;;1.42;0.30;;;16.70;99.90;;;;;;5094213;28;20101;-47
2023/08/08 08:36:50;;;;;;;0.95;0.20;;;16.70;99.90;;;;;;5092976;28;20398;-52
2023/08/08 08:39:16;;;;;;;2.63;0.30;;;16.70;99.90;;;;;;5094011;28;20101;-45
2023/08/08 08:41:45;;;;;;;3.25;0.82;;;16.80;99.90;;;;;;5092977;28;20040;-46
2023/08/08 08:44:11;;;;;;;1.20;0.38;;;16.70;99.90;;;;;;5094094;28;20044;-49
2023/08/08 08:46:37;;;;;;;1.65;0.45;;;16.60;99.90;;;;;;5093865;28;20040;-48
2023/08/08 08:49:08;;;;;;;2.05;0.40;;;16.50;99.90;;;;;;5093947;28;20055;-46
2023/08/08 08:51:35;;;;;;;1.75;0.30;;;16.40;99.90;;;;;;5094201;28;20048;-46
2023/08/08 08:54:00;;;;;;;2.30;0.43;;;16.30;99.90;;;;;;5094032;28;20380;-45
2023/08/08 08:56:27;;;;;;;1.75;0.30;;;16.20;99.90;;;;;;5092641;28;20105;-46
2023/08/08 08:58:52;;;;;;;3.55;0.40;;;16.20;99.90;;;;;;5093976;28;20055;-48
2023/08/08 09:01:19;;;;;;;2.00;0.47;;;16.10;99.90;;;;;;5093846;28;20394;-47
2023/08/08 09:03:45;;;;;;;1.58;0.30;;;16.10;99.90;;;;;;5093955;28;20146;-47
2023/08/08 09:06:12;;;;;;;1.95;0.20;;;16.20;99.90;;;;;;5093785;28;20079;-48
2023/08/08 09:08:37;;;;;;;1.73;0.60;;;16.20;99.90;;;;;;5093818;28;20051;-48
2023/08/08 09:11:03;;;;;;;2.65;0.40;;;16.20;99.90;;;;;;5093778;28;20078;-48
2023/08/08 09:13:39;;;;;;;3.45;0.95;;;16.20;99.90;;;;;;5093797;28;20044;-47
2023/08/08 09:16:08;;;;;;;5.33;0.77;;;16.20;99.90;;;;;;5093336;28;20127;-47
2023/08/08 09:18:38;;;;;;;1.40;0.43;;;16.20;99.90;;;;;;5093411;28;20044;-47
2023/08/08 09:21:06;;;;;;;1.40;0.47;;;16.20;99.90;;;;;;5093722;28;20103;-47
2023/08/08 09:23:32;;;;;;;2.60;0.50;;;16.30;99.90;;;;;;5093557;28;20040;-47
2023/08/08 09:25:58;;;;;;;1.40;0.30;;;16.40;99.90;;;;;;5093666;28;20093;-47
2023/08/08 09:28:25;;;;;;;2.10;0.22;;;16.50;99.90;;;;;;5093183;28;20419;-48
2023/08/08 09:30:51;;;;;;;;;;;16.50;99.90;;;;;;5093623;28;20383;-47
2023/08/08 09:33:18;;;;;;;2.55;0.30;;;16.60;99.90;;;;;;5096312;28;19928;-48
2023/08/08 09:35:45;;;;;;;2.05;0.25;;;16.60;99.90;;;;;;5096447;28;20044;-47
2023/08/08 09:38:10;;;;;;;3.20;0.30;;;16.70;99.90;;;;;;5097551;28;20044;-47
2023/08/08 09:40:36;;;;;;;2.97;0.38;;;16.80;99.90;;;;;;5097501;28;20113;-47
2023/08/08 09:43:02;;;;;;;2.30;0.22;;;16.90;99.90;;;;;;5097387;28;20383;-47
2023/08/08 09:45:36;;;;;;;0.60;0.30;;;16.90;99.90;;;;;;5097223;28;20044;-47
2023/08/08 09:48:03;;;;;;;1.50;0.30;;;17.00;99.90;;;;;;5097704;28;20044;-47
2023/08/08 09:50:29;;;;;;;1.80;0.38;;;17.00;99.90;;;;;;5096388;28;20505;-47
2023/08/08 09:52:56;;;;;;;1.80;0.22;;;17.00;99.90;;;;;;5097370;28;20051;-46
2023/08/08 09:55:23;;;;;;;1.95;0.30;;;17.00;99.90;;;;;;5096037;28;20047;-45
2023/08/08 09:57:49;;;;;;;1.70;0.30;;;17.00;99.90;;;;;;5097199;28;20130;-48
2023/08/08 10:00:15;;;;;;;0.55;0.20;;;17.00;99.90;;;;;;5096376;28;20055;-46
2023/08/08 10:02:46;;;;;;;2.75;0.40;;;17.00;99.90;;;;;;5097165;28;20052;-45
2023/08/08 10:05:13;;;;;;;1.65;0.50;;;16.90;99.90;;;;;;5096348;28;20060;-46
2023/08/08 10:07:40;;;;;;;0.82;0.20;;;16.90;99.90;;;;;;5096911;28;20055;-46
2023/08/08 10:10:09;;;;;;;2.15;0.32;;;16.90;99.90;;;;;;5096762;28;20047;-47
2023/08/08 10:12:39;;;;;;;0.70;0.20;;;16.80;99.90;;;;;;5097000;28;20044;-46
2023/08/08 10:15:11;;;;;;;0.80;0.30;;;16.70;99.90;;;;;;5079576;28;20075;-50
2023/08/08 10:17:41;;;;;;;1.60;0.50;;;16.60;99.90;;;;;;5096756;28;20050;-46
2023/08/08 10:20:12;;;;;;;0.63;0.20;;;16.50;99.90;;;;;;5095704;28;20052;-45
2023/08/08 10:22:43;;;;;;;1.13;0.20;;;16.40;99.90;;;;;;5096673;28;20059;-46
2023/08/08 10:25:08;;;;;;;1.73;0.30;;;16.40;99.90;;;;;;5097145;28;20127;-46
2023/08/08 10:27:37;;;;;;;2.90;0.50;;;16.40;99.90;;;;;;5096690;28;20071;-45
2023/08/08 10:30:09;;;;;;;2.97;0.50;;;16.40;99.90;;;;;;5096889;28;20437;-45
2023/08/08 10:32:43;;;;;;;2.10;0.30;;;16.40;99.90;;;;;;5096785;28;20451;-45
2023/08/08 10:35:11;;;;;;;2.28;0.30;;;16.60;99.90;;;;;;5095297;28;20055;-46
2023/08/08 10:37:37;;;;;;;2.20;0.68;;;16.80;99.90;;;;;;5095222;28;20039;-48
2023/08/08 10:40:08;;;;;;;;;;;17.10;99.90;;;;;;5096824;28;20534;-50
2023/08/08 10:42:43;;;;;;;2.95;0.50;;;17.30;99.90;;;;;;5096424;28;19920;-50
2023/08/08 10:45:14;;;;;;;0.55;0.28;;;17.50;99.90;;;;;;5095833;28;20048;-45
2023/08/08 10:47:40;;;;;;;1.88;0.55;;;17.80;99.90;;;;;;5096303;28;20037;-50
2023/08/08 10:50:08;;;;;;;1.90;0.38;;;17.90;99.90;;;;;;5094834;28;20551;-48
2023/08/08 10:52:55;;;;;;;2.05;0.30;;;17.90;99.90;;;;;;5096210;28;20048;-46
2023/08/08 10:55:26;;;;;;;2.45;0.38;;;18.10;99.90;;;;;;5095846;28;20052;-48
2023/08/08 10:57:56;;;;;;;2.70;0.73;;;18.10;99.90;;;;;;5095955;28;20411;-45
2023/08/08 11:00:25;;;;;;;2.17;0.55;;;18.20;99.90;;;;;;5095950;28;20052;-46
2023/08/08 11:02:52;;;;;;;4.10;0.43;;;18.30;99.90;;;;;;5096408;28;20062;-46
2023/08/08 11:05:19;;;;;;;2.95;0.52;;;18.40;99.90;;;;;;5096347;28;20098;-47
2023/08/08 11:07:45;;;;;;;2.70;0.20;;;18.60;99.90;;;;;;5094954;28;20054;-47
2023/08/08 11:10:11;;;;;;;1.35;0.30;;;18.80;99.90;;;;;;5095695;28;20127;-49
2023/08/08 11:12:36;;;;;;;0.90;0.22;;;18.90;99.90;;;;;;5095723;28;20054;-44
2023/08/08 11:15:03;;;;;;;2.45;0.30;;;18.90;99.90;;;;;;5095556;28;20055;-45
2023/08/08 11:17:29;;;;;;;1.98;0.30;;;18.90;99.90;;;;;;5096240;28;20051;-50
2023/08/08 11:19:55;;;;;;;1.45;0.30;;;18.90;99.90;;;;;;5095598;28;20044;-46
2023/08/08 11:22:24;;;;;;;2.58;0.60;;;18.80;99.90;;;;;;5094985;28;20121;-53
2023/08/08 11:24:50;;;;;;;2.08;0.45;;;18.70;99.90;;;;;;5094495;28;20075;-45
2023/08/08 11:27:16;;;;;;;2.30;0.30;;;18.60;99.90;;;;;;5095106;28;20056;-47
2023/08/08 11:29:50;;;;;;;0.80;0.38;;;18.40;99.90;;;;;;5095531;28;20059;-49
2023/08/08 11:32:16;;;;;;;1.60;0.30;;;18.20;99.90;;;;;;5095675;28;20052;-47
2023/08/08 11:34:42;;;;;;;3.53;0.50;;;18.10;99.90;;;;;;5077600;28;20102;-47
2023/08/08 11:37:09;;;;;;;3.70;0.30;;;17.90;99.90;;;;;;5094196;28;20048;-47
2023/08/08 11:39:36;;;;;;;2.25;0.35;;;17.80;99.90;;;;;;5095118;28;20052;-47
2023/08/08 11:42:02;;;;;;;2.88;0.38;;;17.60;99.90;;;;;;5094094;28;20123;-51
2023/08/08 11:44:27;;;;;;;1.65;0.20;;;17.50;99.90;;;;;;5095234;28;20197;-48
2023/08/08 11:46:53;;;;;;;3.03;0.40;;;17.70;99.90;;;;;;5095172;28;20036;-46
2023/08/08 11:49:19;;;;;;;10.60;0.88;;;17.80;99.90;;;;;;5095217;28;20071;-46
2023/08/08 11:51:45;;;;;;;2.25;0.20;;;18.00;99.90;;;;;;5095055;28;20494;-48
2023/08/08 11:54:11;;;;;;;;;;;18.10;99.90;;;;;;5094313;28;20055;-50
2023/08/08 11:56:37;;;;;;;1.38;0.85;;;18.20;99.90;;;;;;5092663;28;19924;-45
2023/08/08 11:59:04;;;;;;;2.05;0.30;;;18.30;99.90;;;;;;5093689;28;20044;-51
2023/08/08 12:01:32;;;;;;;3.08;0.40;;;18.30;99.90;;;;;;5094781;28;20122;-48
2023/08/08 12:04:04;;;;;;;0.65;0.25;;;18.30;99.90;;;;;;5094842;28;20048;-51
2023/08/08 12:06:29;;;;;;;2.88;0.40;;;18.30;99.90;;;;;;5093458;28;20123;-47
2023/08/08 12:08:55;;;;;;;0.80;0.25;;;18.30;99.90;;;;;;5094623;28;20127;-48
2023/08/08 12:11:21;;;;;;;1.35;0.40;;;18.30;99.90;;;;;;5094427;28;20094;-48
2023/08/08 12:13:47;;;;;;;0.80;0.13;;;18.50;99.90;;;;;;5094427;28;20502;-49
2023/08/08 12:16:14;;;;;;;3.38;0.30;;;18.70;99.90;;;;;;5093500;28;20136;-45
2023/08/08 12:18:40;;;;;;;3.78;0.60;;;18.80;99.90;;;;;;5094349;28;20502;-47
2023/08/08 12:21:08;;;;;;;2.47;0.17;;;18.90;99.90;;;;;;5094503;28;20105;-46
2023/08/08 12:23:34;;;;;;;1.38;0.30;;;18.80;99.90;;;;;;5094467;28;20131;-48
2023/08/08 12:26:03;;;;;;;2.45;0.50;;;18.60;99.90;;;;;;5093246;28;20051;-46
2023/08/08 12:28:29;;;;;;;1.92;0.25;;;18.40;99.90;;;;;;5093999;28;20060;-47
2023/08/08 12:30:54;;;;;;;2.42;0.47;;;18.30;99.90;;;;;;5094478;28;20131;-47
2023/08/08 12:33:20;;;;;;;2.35;0.50;;;18.40;99.90;;;;;;5094298;28;20190;-48
2023/08/08 12:35:47;;;;;;;2.67;0.40;;;18.50;99.90;;;;;;5093346;28;20051;-47
2023/08/08 12:38:14;;;;;;;3.30;0.30;;;18.60;99.90;;;;;;5093953;28;20044;-50
2023/08/08 12:40:40;;;;;;;1.33;0.30;;;18.70;99.90;;;;;;5076301;28;20048;-49
2023/08/08 12:43:05;;;;;;;3.00;0.30;;;18.70;99.90;;;;;;5094148;28;20050;-53
2023/08/08 12:45:31;;;;;;;1.80;0.43;;;18.60;99.90;;;;;;5094299;28;20055;-45